createdAt,value
2018-10-18T00:02:19.392Z,87.90
2018-10-18T00:04:47.571Z,87.30
2018-10-18T00:07:15.755Z,87.70
2018-10-18T00:09:43.934Z,87.30
2018-10-18T00:12:12.227Z,87.10
2018-10-18T00:14:40.847Z,87.10
2018-10-18T00:17:14.430Z,88.10
2018-10-18T00:19:42.603Z,88.00
2018-10-18T00:22:10.786Z,88.20
2018-10-18T00:24:38.963Z,88.00
2018-10-18T00:27:07.146Z,88.10
2018-10-18T00:29:35.315Z,88.00
2018-10-18T00:32:03.597Z,88.70
2018-10-18T00:34:31.714Z,88.20
2018-10-18T00:36:59.917Z,88.00
2018-10-18T00:39:28.090Z,88.10
2018-10-18T00:41:56.314Z,88.00
2018-10-18T00:44:24.450Z,88.40
2018-10-18T00:46:52.623Z,88.50
2018-10-18T00:49:20.802Z,88.50
2018-10-18T00:51:48.975Z,88.10
2018-10-18T00:54:17.325Z,88.00
2018-10-18T00:56:45.334Z,88.10
2018-10-18T00:59:13.514Z,88.10
2018-10-18T01:01:41.678Z,88.10
2018-10-18T01:04:09.866Z,88.20
2018-10-18T01:06:38.043Z,88.10
2018-10-18T01:09:07.703Z,87.90
2018-10-18T01:11:35.898Z,88.00
2018-10-18T01:14:04.119Z,88.40
2018-10-18T01:16:32.257Z,88.40
2018-10-18T01:19:00.614Z,88.30
2018-10-18T01:21:28.783Z,88.30
2018-10-18T01:23:56.996Z,88.30
2018-10-18T01:26:25.139Z,88.30
2018-10-18T01:28:53.323Z,88.30
2018-10-18T01:31:21.495Z,88.20
2018-10-18T01:33:49.675Z,88.20
2018-10-18T01:36:17.887Z,88.30
2018-10-18T01:38:46.023Z,88.10
2018-10-18T01:41:14.197Z,88.40
2018-10-18T01:43:42.374Z,88.30
2018-10-18T01:46:10.562Z,88.50
2018-10-18T01:48:38.735Z,88.40
2018-10-18T01:51:06.914Z,88.30
2018-10-18T01:53:35.090Z,88.50
2018-10-18T01:56:03.305Z,88.50
2018-10-18T01:58:31.447Z,88.60
2018-10-18T02:00:59.630Z,88.90
2018-10-18T02:03:27.806Z,88.80
2018-10-18T02:05:56.011Z,88.60
2018-10-18T02:08:24.156Z,88.60
2018-10-18T02:10:52.331Z,88.90
2018-10-18T02:13:20.487Z,88.90
2018-10-18T02:15:48.654Z,88.70
2018-10-18T02:18:16.845Z,88.90
2018-10-18T02:20:44.978Z,89.10
2018-10-18T02:23:13.134Z,89.40
2018-10-18T02:25:41.310Z,89.50
2018-10-18T02:28:09.466Z,89.10
2018-10-18T02:30:37.643Z,89.00
2018-10-18T02:33:05.800Z,88.80
2018-10-18T02:35:33.962Z,88.80
2018-10-18T02:38:02.126Z,88.50
2018-10-18T02:40:30.290Z,88.10
2018-10-18T02:42:58.445Z,88.60
2018-10-18T02:45:26.610Z,88.70
2018-10-18T02:47:54.818Z,88.20
2018-10-18T02:50:22.976Z,88.10
2018-10-18T02:52:51.135Z,88.20
2018-10-18T02:55:19.451Z,88.50
2018-10-18T02:57:47.838Z,88.50
2018-10-18T03:00:16.085Z,88.70
2018-10-18T03:02:44.288Z,88.70
2018-10-18T03:05:12.439Z,88.40
2018-10-18T03:07:40.604Z,88.50
2018-10-18T03:10:09.207Z,88.70
2018-10-18T03:12:37.426Z,89.30
2018-10-18T03:15:06.686Z,88.60
2018-10-18T03:17:34.863Z,88.60
2018-10-18T03:20:03.063Z,88.60
2018-10-18T03:22:31.307Z,88.50
2018-10-18T03:24:59.497Z,88.10
2018-10-18T03:27:27.661Z,88.30
2018-10-18T03:29:55.888Z,88.30
2018-10-18T03:32:24.323Z,88.40
2018-10-18T03:34:52.831Z,88.30
2018-10-18T03:37:21.010Z,88.10
2018-10-18T03:39:49.179Z,88.00
2018-10-18T03:42:17.454Z,88.00
2018-10-18T03:44:45.539Z,88.40
2018-10-18T03:47:13.718Z,88.70
2018-10-18T03:49:41.892Z,89.10
2018-10-18T03:52:10.074Z,88.70
2018-10-18T03:54:38.257Z,88.70
2018-10-18T03:57:06.434Z,88.40
2018-10-18T03:59:34.667Z,88.40
2018-10-18T04:02:02.794Z,89.30
2018-10-18T04:04:30.978Z,88.60
2018-10-18T04:06:59.142Z,88.80
2018-10-18T04:09:27.318Z,88.60
2018-10-18T04:11:55.490Z,88.40
2018-10-18T04:14:23.647Z,88.40
2018-10-18T04:16:51.802Z,88.60
2018-10-18T04:19:19.974Z,88.70
2018-10-18T04:21:48.134Z,88.60
2018-10-18T04:24:16.356Z,88.70
2018-10-18T04:26:44.458Z,89.10
2018-10-18T04:29:12.631Z,88.50
2018-10-18T04:31:40.791Z,88.50
2018-10-18T04:34:08.958Z,88.80
2018-10-18T04:36:37.115Z,89.20
2018-10-18T04:39:07.843Z,89.50
2018-10-18T04:41:36.011Z,89.70
2018-10-18T04:44:04.210Z,89.60
2018-10-18T04:46:32.362Z,89.20
2018-10-18T04:49:00.553Z,89.40
2018-10-18T04:51:28.682Z,89.20
2018-10-18T04:53:56.850Z,89.40
2018-10-18T04:56:25.019Z,89.40
2018-10-18T04:58:53.192Z,89.60
2018-10-18T05:01:21.451Z,89.70
2018-10-18T05:03:49.573Z,89.70
2018-10-18T05:06:17.761Z,89.90
2018-10-18T05:08:45.959Z,89.70
2018-10-18T05:11:14.216Z,89.60
2018-10-18T05:13:42.322Z,89.80
2018-10-18T05:16:10.489Z,90.20
2018-10-18T05:18:38.642Z,90.00
2018-10-18T05:21:06.811Z,89.50
2018-10-18T05:23:34.963Z,89.50
2018-10-18T05:26:03.138Z,89.70
2018-10-18T05:28:31.298Z,89.70
2018-10-18T05:30:59.532Z,89.70
2018-10-18T05:33:27.643Z,89.40
2018-10-18T05:35:55.802Z,89.70
2018-10-18T05:38:23.975Z,89.90
2018-10-18T05:40:52.134Z,89.90
2018-10-18T05:43:22.888Z,89.60
2018-10-18T05:45:51.955Z,89.60
2018-10-18T05:48:20.258Z,89.80
2018-10-18T05:50:48.473Z,89.50
2018-10-18T05:53:16.725Z,89.50
2018-10-18T05:55:44.846Z,89.80
2018-10-18T05:58:13.003Z,89.50
2018-10-18T06:00:41.163Z,89.60
2018-10-18T06:03:09.327Z,89.60
2018-10-18T06:05:37.490Z,89.80
2018-10-18T06:08:05.803Z,90.00
2018-10-18T06:10:45.590Z,90.30
2018-10-18T06:13:13.806Z,90.30
2018-10-18T06:15:41.937Z,90.20
2018-10-18T06:18:10.102Z,90.10
2018-10-18T06:20:38.267Z,90.20
2018-10-18T06:23:06.711Z,90.30
2018-10-18T06:25:34.916Z,90.30
2018-10-18T06:28:03.126Z,90.30
2018-10-18T06:30:31.303Z,90.00
2018-10-18T06:32:59.506Z,89.90
2018-10-18T06:35:27.851Z,90.00
2018-10-18T06:37:56.025Z,90.10
2018-10-18T06:40:24.178Z,89.80
2018-10-18T06:42:52.385Z,90.10
2018-10-18T06:45:20.540Z,90.30
2018-10-18T06:47:48.921Z,90.20
2018-10-18T06:50:19.227Z,90.50
2018-10-18T06:52:47.388Z,90.30
2018-10-18T06:55:15.588Z,90.40
2018-10-18T06:57:44.271Z,90.20
2018-10-18T07:00:14.614Z,90.50
2018-10-18T07:02:43.258Z,90.30
2018-10-18T07:05:12.688Z,90.50
2018-10-18T07:07:41.047Z,90.70
2018-10-18T07:10:09.249Z,90.60
2018-10-18T07:12:38.321Z,90.00
2018-10-18T07:15:07.325Z,89.70
2018-10-18T07:17:36.219Z,89.90
2018-10-18T07:20:04.623Z,90.00
2018-10-18T07:22:32.802Z,90.00
2018-10-18T07:25:01.000Z,89.60
2018-10-18T07:27:29.170Z,90.00
2018-10-18T07:29:57.396Z,89.70
2018-10-18T07:32:26.046Z,89.70
2018-10-18T07:34:54.652Z,89.60
2018-10-18T07:37:23.007Z,89.10
2018-10-18T07:39:51.194Z,89.20
2018-10-18T07:42:19.524Z,89.30
2018-10-18T07:44:47.557Z,88.60
2018-10-18T07:47:15.910Z,88.40
2018-10-18T07:49:44.140Z,89.00
2018-10-18T07:52:12.363Z,88.10
2018-10-18T07:54:40.566Z,88.50
2018-10-18T07:57:08.734Z,89.30
2018-10-18T07:59:36.921Z,88.30
2018-10-18T08:02:05.105Z,88.20
2018-10-18T08:04:33.310Z,87.40
2018-10-18T08:07:01.505Z,87.40
2018-10-18T08:09:29.690Z,87.70
2018-10-18T08:11:57.859Z,88.40
2018-10-18T08:14:26.031Z,88.50
2018-10-18T08:16:54.302Z,87.90
2018-10-18T08:19:22.359Z,87.50
2018-10-18T08:21:50.531Z,87.60
2018-10-18T08:24:18.695Z,87.50
2018-10-18T08:26:46.868Z,87.30
2018-10-18T08:29:15.355Z,88.00
2018-10-18T08:31:43.526Z,88.60
2018-10-18T08:34:11.723Z,87.10
2018-10-18T08:36:39.927Z,87.10
2018-10-18T08:39:09.263Z,86.60
2018-10-18T08:41:37.442Z,86.70
2018-10-18T08:44:05.725Z,86.20
2018-10-18T08:46:33.779Z,86.50
2018-10-18T08:49:02.047Z,87.00
2018-10-18T08:51:30.394Z,86.20
2018-10-18T08:53:58.591Z,85.60
2018-10-18T08:56:26.771Z,86.20
2018-10-18T08:58:55.278Z,85.30
2018-10-18T09:01:23.446Z,85.40
2018-10-18T09:03:51.611Z,85.60
2018-10-18T09:06:19.787Z,84.60
2018-10-18T09:08:47.942Z,84.40
2018-10-18T09:11:16.138Z,84.40
2018-10-18T09:13:44.360Z,83.50
2018-10-18T09:16:12.783Z,83.20
2018-10-18T09:18:40.775Z,84.30
2018-10-18T09:21:08.995Z,83.80
2018-10-18T09:23:37.559Z,82.10
2018-10-18T09:26:05.742Z,82.30
2018-10-18T09:28:33.914Z,82.10
2018-10-18T09:31:02.179Z,82.10
2018-10-18T09:33:30.267Z,82.00
2018-10-18T09:35:58.499Z,80.50
2018-10-18T09:38:26.784Z,80.30
2018-10-18T09:40:54.855Z,81.00
2018-10-18T09:43:23.084Z,81.70
2018-10-18T09:45:51.258Z,81.80
2018-10-18T09:48:19.443Z,80.90
2018-10-18T09:50:47.627Z,80.70
2018-10-18T09:53:15.848Z,80.80
2018-10-18T09:55:44.096Z,79.40
2018-10-18T09:58:12.276Z,78.80
2018-10-18T10:00:45.863Z,77.80
2018-10-18T10:03:16.782Z,77.10
2018-10-18T10:05:44.960Z,76.40
2018-10-18T10:08:13.439Z,74.20
2018-10-18T10:10:41.629Z,74.00
2018-10-18T10:13:09.931Z,73.40
2018-10-18T10:15:37.998Z,73.00
2018-10-18T10:18:06.281Z,71.90
2018-10-18T10:20:34.358Z,74.00
2018-10-18T10:23:02.722Z,74.90
2018-10-18T10:25:30.927Z,74.80
2018-10-18T10:27:59.107Z,75.70
2018-10-18T10:30:27.558Z,75.50
2018-10-18T10:32:55.824Z,74.40
2018-10-18T10:35:23.983Z,73.90
2018-10-18T10:37:52.183Z,74.30
2018-10-18T10:40:20.468Z,72.90
2018-10-18T10:42:48.616Z,74.00
2018-10-18T10:45:16.827Z,73.10
2018-10-18T10:47:44.914Z,71.90
2018-10-18T10:50:13.220Z,71.40
2018-10-18T10:52:41.277Z,72.20
2018-10-18T10:55:10.560Z,72.10
2018-10-18T10:57:38.735Z,72.00
2018-10-18T11:00:07.200Z,70.90
2018-10-18T11:02:35.315Z,71.00
2018-10-18T11:05:03.519Z,70.70
2018-10-18T11:07:31.699Z,71.30
2018-10-18T11:09:59.933Z,70.30
2018-10-18T11:12:28.291Z,69.60
2018-10-18T11:14:56.378Z,69.80
2018-10-18T11:17:24.535Z,70.00
2018-10-18T11:19:52.729Z,68.30
2018-10-18T11:22:20.894Z,67.80
2018-10-18T11:24:49.149Z,67.80
2018-10-18T11:27:17.303Z,67.30
2018-10-18T11:29:45.438Z,67.70
2018-10-18T11:32:13.679Z,66.90
2018-10-18T11:34:42.072Z,67.00
2018-10-18T11:37:10.250Z,66.30
2018-10-18T11:39:38.438Z,66.70
2018-10-18T11:42:06.666Z,66.00
2018-10-18T11:44:39.063Z,64.80
2018-10-18T11:47:07.291Z,63.80
2018-10-18T11:49:35.502Z,64.50
2018-10-18T11:52:03.750Z,64.70
2018-10-18T11:54:31.915Z,65.00
2018-10-18T11:57:00.120Z,64.60
2018-10-18T11:59:28.374Z,63.50
2018-10-18T12:01:56.585Z,62.30
2018-10-18T12:04:24.746Z,62.00
2018-10-18T12:06:52.935Z,62.60
2018-10-18T12:09:21.118Z,61.60
2018-10-18T12:11:49.307Z,60.20
2018-10-18T12:14:17.517Z,60.60
2018-10-18T12:16:45.639Z,60.00
2018-10-18T12:19:13.884Z,61.10
2018-10-18T12:21:41.983Z,60.00
2018-10-18T12:24:10.155Z,59.40
2018-10-18T12:26:38.344Z,60.00
2018-10-18T12:29:06.611Z,59.10
2018-10-18T12:31:34.699Z,59.30
2018-10-18T12:34:02.904Z,59.60
2018-10-18T12:36:31.127Z,59.20
2018-10-18T12:38:59.317Z,58.00
2018-10-18T12:41:27.618Z,58.70
2018-10-18T12:43:55.664Z,56.60
2018-10-18T12:46:23.831Z,56.90
2018-10-18T12:48:51.995Z,57.30
2018-10-18T12:51:20.163Z,57.80
2018-10-18T12:53:48.323Z,57.60
2018-10-18T12:56:16.600Z,59.10
2018-10-18T12:58:44.818Z,58.10
2018-10-18T13:01:12.995Z,59.00
2018-10-18T13:03:41.154Z,59.00
2018-10-18T13:06:09.355Z,57.90
2018-10-18T13:08:37.510Z,57.40
2018-10-18T13:11:05.842Z,57.60
2018-10-18T13:13:34.180Z,57.50
2018-10-18T13:16:02.465Z,58.10
2018-10-18T13:18:30.648Z,57.40
2018-10-18T13:20:58.825Z,56.90
2018-10-18T13:23:26.995Z,57.00
2018-10-18T13:25:55.226Z,56.30
2018-10-18T13:28:23.335Z,56.40
2018-10-18T13:30:51.494Z,55.90
2018-10-18T13:33:19.666Z,56.10
2018-10-18T13:35:48.102Z,55.80
2018-10-18T13:38:16.325Z,56.10
2018-10-18T13:40:44.993Z,55.40
2018-10-18T13:43:13.162Z,54.40
2018-10-18T13:45:41.315Z,55.20
2018-10-18T13:48:09.546Z,56.00
2018-10-18T13:50:37.655Z,55.00
2018-10-18T13:53:06.142Z,55.40
2018-10-18T13:55:34.363Z,54.70
2018-10-18T13:58:02.539Z,54.30
2018-10-18T14:00:31.401Z,54.80
2018-10-18T14:02:59.618Z,55.60
2018-10-18T14:05:28.168Z,56.30
2018-10-18T14:07:56.927Z,56.40
2018-10-18T14:10:25.059Z,57.00
2018-10-18T14:12:53.820Z,57.80
2018-10-18T14:15:22.019Z,57.30
2018-10-18T14:17:50.343Z,58.40
2018-10-18T14:20:18.528Z,58.70
2018-10-18T14:22:46.650Z,57.90
2018-10-18T14:25:14.827Z,58.70
2018-10-18T14:27:43.035Z,60.40
2018-10-18T14:30:12.509Z,58.60
2018-10-18T14:32:40.662Z,58.80
2018-10-18T14:35:10.428Z,60.70
2018-10-18T14:37:38.618Z,60.90
2018-10-18T14:40:07.786Z,59.90
2018-10-18T14:42:36.175Z,60.30
2018-10-18T14:45:05.654Z,60.10
2018-10-18T14:47:33.834Z,60.10
2018-10-18T14:50:02.111Z,60.40
2018-10-18T14:52:30.247Z,60.30
2018-10-18T14:54:58.438Z,59.70
2018-10-18T14:57:26.681Z,61.30
2018-10-18T14:59:54.806Z,61.10
2018-10-18T15:02:22.984Z,61.70
2018-10-18T15:04:51.171Z,60.30
2018-10-18T15:07:19.530Z,59.90
2018-10-18T15:09:47.759Z,60.40
2018-10-18T15:12:15.943Z,62.00
2018-10-18T15:14:44.127Z,60.50
2018-10-18T15:17:12.467Z,61.10
2018-10-18T15:19:40.503Z,62.10
2018-10-18T15:22:08.975Z,63.20
2018-10-18T15:24:37.167Z,63.20
2018-10-18T15:27:05.836Z,64.90
2018-10-18T15:29:33.849Z,66.50
2018-10-18T15:32:02.201Z,69.00
2018-10-18T15:34:30.287Z,67.80
2018-10-18T15:36:58.595Z,68.50
2018-10-18T15:39:26.852Z,69.70
2018-10-18T15:41:54.966Z,69.70
2018-10-18T15:44:23.249Z,70.80
2018-10-18T15:46:51.331Z,71.60
2018-10-18T15:49:19.522Z,71.80
2018-10-18T15:51:47.727Z,72.20
2018-10-18T15:54:16.029Z,73.00
2018-10-18T15:56:44.098Z,73.00
2018-10-18T15:59:12.383Z,74.00
2018-10-18T16:01:40.499Z,74.30
2018-10-18T16:04:08.674Z,74.60
2018-10-18T16:06:36.871Z,74.80
2018-10-18T16:09:08.589Z,75.70
2018-10-18T16:11:36.908Z,75.50
2018-10-18T16:14:05.100Z,76.20
2018-10-18T16:16:33.319Z,76.00
2018-10-18T16:19:01.499Z,76.50
2018-10-18T16:21:29.691Z,77.00
2018-10-18T16:23:57.929Z,77.30
2018-10-18T16:26:26.286Z,77.50
2018-10-18T16:28:54.375Z,77.70
2018-10-18T16:31:22.590Z,78.50
2018-10-18T16:33:50.837Z,78.50
2018-10-18T16:36:18.950Z,78.80
2018-10-18T16:38:47.135Z,79.00
2018-10-18T16:41:15.547Z,79.80
2018-10-18T16:43:43.531Z,80.10
2018-10-18T16:46:11.810Z,80.30
2018-10-18T16:48:39.967Z,80.40
2018-10-18T16:51:08.162Z,80.40
2018-10-18T16:53:36.381Z,80.80
2018-10-18T16:56:05.017Z,80.90
2018-10-18T16:58:33.194Z,82.00
2018-10-18T17:01:01.388Z,82.00
2018-10-18T17:03:29.570Z,82.10
2018-10-18T17:05:57.836Z,82.20
2018-10-18T17:08:25.971Z,82.10
2018-10-18T17:10:54.559Z,82.40
2018-10-18T17:13:22.731Z,82.50
2018-10-18T17:15:50.890Z,82.70
2018-10-18T17:18:19.092Z,83.00
2018-10-18T17:20:47.333Z,83.30
2018-10-18T17:23:15.645Z,83.50
2018-10-18T17:25:43.791Z,83.60
2018-10-18T17:28:11.963Z,83.80
2018-10-18T17:30:40.147Z,84.10
2018-10-18T17:33:08.355Z,84.00
2018-10-18T17:35:36.531Z,84.10
2018-10-18T17:38:05.027Z,84.50
2018-10-18T17:40:33.143Z,84.50
2018-10-18T17:43:01.594Z,84.40
2018-10-18T17:45:29.759Z,84.80
2018-10-18T17:47:57.967Z,84.90
2018-10-18T17:50:26.102Z,85.30
2018-10-18T17:52:54.422Z,85.00
2018-10-18T17:55:22.443Z,85.20
2018-10-18T17:57:50.614Z,85.40
2018-10-18T18:00:18.853Z,85.40
2018-10-18T18:02:46.946Z,85.50
2018-10-18T18:05:15.109Z,85.60
2018-10-18T18:07:43.301Z,85.80
2018-10-18T18:10:13.490Z,85.80
2018-10-18T18:12:41.698Z,86.00
2018-10-18T18:15:10.400Z,86.10
2018-10-18T18:17:38.811Z,86.40
2018-10-18T18:20:08.052Z,86.50
2018-10-18T18:22:36.232Z,86.50
2018-10-18T18:25:05.622Z,86.80
2018-10-18T18:27:33.804Z,86.90
2018-10-18T18:30:01.989Z,87.00
2018-10-18T18:32:30.166Z,87.10
2018-10-18T18:34:58.363Z,87.10
2018-10-18T18:37:26.551Z,87.10
2018-10-18T18:39:54.743Z,87.10
2018-10-18T18:42:22.923Z,87.00
2018-10-18T18:44:55.389Z,86.90
2018-10-18T18:47:23.612Z,87.10
2018-10-18T18:49:51.735Z,87.00
2018-10-18T18:52:19.964Z,87.30
2018-10-18T18:54:48.189Z,87.60
2018-10-18T18:57:16.423Z,87.70
2018-10-18T18:59:44.610Z,87.60
2018-10-18T19:02:12.806Z,87.70
2018-10-18T19:04:40.999Z,87.60
2018-10-18T19:07:09.174Z,87.90
2018-10-18T19:09:37.370Z,88.00
2018-10-18T19:12:05.691Z,87.90
2018-10-18T19:14:33.883Z,88.00
2018-10-18T19:17:02.068Z,87.90
2018-10-18T19:19:30.267Z,88.30
2018-10-18T19:21:58.714Z,87.70
2018-10-18T19:24:26.903Z,87.80
2018-10-18T19:26:55.106Z,87.90
2018-10-18T19:29:23.287Z,88.30
2018-10-18T19:31:51.510Z,88.50
2018-10-18T19:34:19.946Z,88.30
2018-10-18T19:36:48.173Z,88.30
2018-10-18T19:39:16.397Z,88.00
2018-10-18T19:41:44.604Z,88.40
2018-10-18T19:44:12.882Z,88.30
2018-10-18T19:46:41.199Z,88.30
2018-10-18T19:49:09.547Z,88.60
2018-10-18T19:51:37.811Z,88.50
2018-10-18T19:54:06.008Z,88.30
2018-10-18T19:56:34.219Z,88.30
2018-10-18T19:59:02.416Z,88.10
2018-10-18T20:01:30.592Z,88.30
2018-10-18T20:03:59.309Z,88.40
2018-10-18T20:06:27.588Z,88.60
2018-10-18T20:08:55.879Z,88.50
2018-10-18T20:11:24.059Z,88.70
2018-10-18T20:13:52.299Z,88.80
2018-10-18T20:16:20.897Z,88.90
2018-10-18T20:18:49.106Z,88.90
2018-10-18T20:21:17.418Z,88.80
2018-10-18T20:23:45.727Z,88.90
2018-10-18T20:26:14.257Z,89.00
2018-10-18T20:28:42.070Z,88.80
2018-10-18T20:31:10.311Z,88.60
2018-10-18T20:33:38.646Z,88.50
2018-10-18T20:36:07.116Z,88.60
2018-10-18T20:38:35.355Z,88.50
2018-10-18T20:41:03.622Z,88.60
2018-10-18T20:43:31.799Z,88.80
2018-10-18T20:46:00.114Z,88.70
2018-10-18T20:48:28.475Z,88.50
2018-10-18T20:50:56.819Z,88.60
2018-10-18T20:53:25.260Z,88.70
2018-10-18T20:55:53.565Z,88.80
2018-10-18T20:58:21.819Z,88.90
2018-10-18T21:00:49.959Z,89.00
2018-10-18T21:03:18.202Z,89.00
2018-10-18T21:05:46.515Z,88.90
2018-10-18T21:08:14.875Z,89.30
2018-10-18T21:10:43.138Z,89.00
2018-10-18T21:13:11.363Z,88.80
2018-10-18T21:15:39.467Z,89.30
2018-10-18T21:18:07.711Z,89.10
2018-10-18T21:20:35.846Z,89.10
2018-10-18T21:23:04.445Z,88.90
2018-10-18T21:25:32.602Z,88.70
2018-10-18T21:28:01.678Z,88.80
2018-10-18T21:30:29.866Z,88.70
2018-10-18T21:32:58.188Z,89.30
2018-10-18T21:35:26.355Z,89.40
2018-10-18T21:37:54.622Z,88.90
2018-10-18T21:40:23.459Z,88.60
2018-10-18T21:42:51.627Z,88.90
2018-10-18T21:45:19.999Z,89.10
2018-10-18T21:47:48.250Z,89.00
2018-10-18T21:50:16.423Z,89.00
2018-10-18T21:52:44.686Z,89.30
2018-10-18T21:55:12.855Z,89.60
2018-10-18T21:57:41.023Z,89.60
2018-10-18T22:00:13.667Z,89.70
2018-10-18T22:02:42.477Z,89.40
2018-10-18T22:05:10.889Z,89.30
2018-10-18T22:07:38.995Z,89.60
2018-10-18T22:10:07.170Z,89.50
2018-10-18T22:12:35.666Z,89.40
2018-10-18T22:15:04.247Z,89.40
2018-10-18T22:17:32.391Z,89.50
2018-10-18T22:20:00.610Z,89.60
2018-10-18T22:22:28.775Z,89.30
2018-10-18T22:24:56.975Z,89.30
2018-10-18T22:27:25.165Z,89.50
2018-10-18T22:29:53.417Z,89.50
2018-10-18T22:32:21.614Z,89.50
2018-10-18T22:34:49.787Z,89.30
2018-10-18T22:37:18.020Z,89.60
2018-10-18T22:39:46.111Z,89.40
2018-10-18T22:42:14.274Z,89.40
2018-10-18T22:44:42.447Z,89.20
2018-10-18T22:47:10.664Z,89.30
2018-10-18T22:49:38.780Z,89.50
2018-10-18T22:52:06.943Z,89.50
2018-10-18T22:54:35.119Z,89.50
2018-10-18T22:57:03.296Z,89.30
2018-10-18T22:59:31.455Z,89.50
2018-10-18T23:01:59.615Z,89.20
2018-10-18T23:04:27.783Z,89.40
2018-10-18T23:06:55.947Z,89.60
2018-10-18T23:09:24.135Z,89.80
2018-10-18T23:11:52.310Z,89.40
2018-10-18T23:14:20.540Z,89.40
2018-10-18T23:16:48.742Z,89.30
2018-10-18T23:19:16.916Z,89.20
2018-10-18T23:21:45.096Z,89.40
2018-10-18T23:24:13.254Z,89.10
2018-10-18T23:26:41.417Z,89.70
2018-10-18T23:29:09.615Z,89.20
2018-10-18T23:31:37.743Z,90.10
2018-10-18T23:34:06.101Z,90.20
2018-10-18T23:36:34.286Z,90.30
2018-10-18T23:39:02.557Z,90.40
2018-10-18T23:41:30.678Z,90.30
2018-10-18T23:43:59.026Z,90.30
2018-10-18T23:46:27.194Z,90.10
2018-10-18T23:48:55.350Z,90.20
2018-10-18T23:51:23.515Z,90.30
2018-10-18T23:53:51.675Z,90.40
2018-10-18T23:56:19.878Z,90.50
2018-10-18T23:58:48.067Z,90.50
